KSQL

San Carlos Airport

San Carlos, California, USA
METAR KSQL 121655Z 31005KT 6SM BR FEW010 BKN018 10/08 A3028
Observed Flight Rules
Dec-12 @ 16:55 UTC (2 hours ago) Marginal Visual Flight Rules
Wind Visibility Clouds Conditions
310° at 5 knots 6 miles
  • Few at 1,000' AGL
  • Broken at 1,800' AGL
  • Mist
Temperatures Readings
Current 10°C / 50°F
Dewpoint 8°C / 46°F
Humidity 88%
Altimeter 30.28" Hg
Pressure 1025 hPa
Elevation 1
METAR KSQL 121655Z 31005KT 6SM BR FEW010 BKN018 10/08 A3028
Observed Flight Rules
Dec-12 @ 16:55 UTC
(2 hours ago)
MVFR
Wind Visibility
310° at 5 knots 6 miles
Clouds
  • Few at 1,000' AGL
  • Broken at 1,800' AGL
Conditions
  • Mist
Temperature Dewpoint
10°C / 50°F 8°C / 46°F
Humidity Altimeter Pressure
88% 30.28" Hg 1025 hPa